Etusivu
METAR-TAF:

METAR-TAF

Lentoasemat :

Stokmarknesin lentoasema

Stokmarknes, Norja

Leveyspiiri: 68-35N, Pituuspiiri: 015-01E, korkeus merenpinnasta: 0 m

Tämänhetkinen sää

Tämä raportti tehtiin 39 minuuttia sitten, kello 03.50 UTC
Tuuli 20 kn kaakosta
Lämpötila 6°C
Kosteus 81%
Ilmanpaine 981 hPa
Näkyvyys 10 km tai enemmän
Muutamia pilviä 1200 ft:n korkeudessa, Kasvava cumulus-pilvi.
Hajanaisia pilviä 2500 ft:n korkeudessa
Hajonneita pilviä 3500 ft:n korkeudessa
vesikuuroja

METAR: ENSK 260350Z 14020KT 9999 SHRA FEW012TCU SCT025 BKN035 06/03 Q0981

Aika: 06:29 (04:29 UTC)


TAF: puuttuu

Säähavainnot ja -ennusteet yli 4000 lentoasemalta (METAR- ja TAF-raportit).

Käytössä olevat sääasemat on merkitty karttaan keltaisilla ja punaisilla pisteillä.

Aseta hiiri pisteen päälle nähdäksesi sääaseman nimen.

Klikkaa sitten nähdäksesi säähavainnot ja -ennusteet.

Kartan vaihtaminen: klikkaa mustalla rastilla varustettuja vihreitä pisteitä, niin voit zoomata sisään; viivalla varustettua vihreää pistettä, niin voit zoomata ulos tai vihreitä nuolia, niin pääset viereisille kartoille.


METAR-TAF: